Wetterdaten für den Flughafen Lübeck Blankensee


ADDS - METARS form results Aviation Digital Data Service (ADDS) Output produced by METARs form (1557 UTC 29 October 2020)
found at http://www.aviationweather.gov/metar/data/
 
EDHL 291550Z 22011KT 9999 FEW024 SCT041 10/07 Q1012
TAF EDHL 291400Z 2915/2921 19008KT 9999 FEW025 SCT045 PROB40 TEMPO 2915/2919 26015G25KT 4500 SHRA FEW010 BKN020CB

Nord: Hamburg, Lübeck
Ost: Schwerin, Rostock
Süd: Hannover
West: Bremen, Nordhloz

 

Copyright © 2016 Flugschule Hohensee